sensor_id;sensor_type;location;lat;lon;timestamp;pressure;altitude;pressure_sealevel;temperature;humidity
28927;BME280;16038;47.692;9.400;2023-04-01T00:00:17;95611.97;;;7.62;97.24
28927;BME280;16038;47.692;9.400;2023-04-01T00:02:43;95613.16;;;7.65;97.46
28927;BME280;16038;47.692;9.400;2023-04-01T00:05:09;95620.88;;;7.59;99.64
28927;BME280;16038;47.692;9.400;2023-04-01T00:07:35;95622.78;;;7.55;100.00
28927;BME280;16038;47.692;9.400;2023-04-01T00:10:01;95619.66;;;7.53;100.00
28927;BME280;16038;47.692;9.400;2023-04-01T00:12:28;95620.59;;;7.34;100.00
28927;BME280;16038;47.692;9.400;2023-04-01T00:14:53;95618.31;;;7.40;100.00
28927;BME280;16038;47.692;9.400;2023-04-01T00:17:18;95622.91;;;7.32;100.00
28927;BME280;16038;47.692;9.400;2023-04-01T00:19:43;95608.47;;;7.28;100.00
28927;BME280;16038;47.692;9.400;2023-04-01T00:22:09;95609.34;;;7.36;100.00
28927;BME280;16038;47.692;9.400;2023-04-01T00:24:37;95610.88;;;7.33;100.00
28927;BME280;16038;47.692;9.400;2023-04-01T00:27:02;95612.75;;;7.29;100.00
28927;BME280;16038;47.692;9.400;2023-04-01T00:29:27;95615.16;;;7.34;100.00
28927;BME280;16038;47.692;9.400;2023-04-01T00:31:55;95626.78;;;7.27;100.00
28927;BME280;16038;47.692;9.400;2023-04-01T00:34:20;95627.50;;;7.24;100.00
28927;BME280;16038;47.692;9.400;2023-04-01T00:36:46;95627.88;;;7.23;100.00
28927;BME280;16038;47.692;9.400;2023-04-01T00:39:11;95622.28;;;7.12;100.00
28927;BME280;16038;47.692;9.400;2023-04-01T00:41:36;95635.03;;;7.04;100.00
28927;BME280;16038;47.692;9.400;2023-04-01T00:44:14;95636.13;;;7.00;100.00
28927;BME280;16038;47.692;9.400;2023-04-01T00:46:39;95629.88;;;6.96;100.00
28927;BME280;16038;47.692;9.400;2023-04-01T00:49:05;95639.44;;;6.86;100.00
28927;BME280;16038;47.692;9.400;2023-04-01T00:51:30;95638.56;;;6.78;100.00
28927;BME280;16038;47.692;9.400;2023-04-01T00:53:57;95638.53;;;6.75;100.00
28927;BME280;16038;47.692;9.400;2023-04-01T00:56:26;95652.69;;;6.61;100.00
28927;BME280;16038;47.692;9.400;2023-04-01T00:59:02;95650.25;;;6.52;100.00
28927;BME280;16038;47.692;9.400;2023-04-01T01:01:29;95653.22;;;6.43;100.00
28927;BME280;16038;47.692;9.400;2023-04-01T01:03:55;95651.22;;;6.40;100.00
28927;BME280;16038;47.692;9.400;2023-04-01T01:08:52;95650.28;;;6.29;100.00
28927;BME280;16038;47.692;9.400;2023-04-01T01:11:26;95651.31;;;6.21;100.00
28927;BME280;16038;47.692;9.400;2023-04-01T01:14:01;95641.13;;;6.14;100.00
28927;BME280;16038;47.692;9.400;2023-04-01T01:16:31;95633.28;;;6.09;100.00
28927;BME280;16038;47.692;9.400;2023-04-01T01:19:08;95635.88;;;6.02;100.00
28927;BME280;16038;47.692;9.400;2023-04-01T01:24:11;95643.88;;;5.94;100.00
28927;BME280;16038;47.692;9.400;2023-04-01T01:26:46;95637.94;;;5.89;100.00
28927;BME280;16038;47.692;9.400;2023-04-01T01:36:53;95617.22;;;5.81;100.00
28927;BME280;16038;47.692;9.400;2023-04-01T01:39:20;95619.47;;;5.75;100.00
28927;BME280;16038;47.692;9.400;2023-04-01T01:41:46;95609.78;;;5.78;100.00
28927;BME280;16038;47.692;9.400;2023-04-01T01:44:14;95603.75;;;5.88;100.00
28927;BME280;16038;47.692;9.400;2023-04-01T01:46:41;95613.31;;;6.01;100.00
28927;BME280;16038;47.692;9.400;2023-04-01T01:49:07;95603.88;;;5.95;100.00
28927;BME280;16038;47.692;9.400;2023-04-01T01:51:34;95600.38;;;5.94;100.00
28927;BME280;16038;47.692;9.400;2023-04-01T01:53:59;95596.69;;;6.06;100.00
28927;BME280;16038;47.692;9.400;2023-04-01T01:56:26;95600.13;;;6.00;100.00
28927;BME280;16038;47.692;9.400;2023-04-01T01:58:53;95598.16;;;6.00;100.00
28927;BME280;16038;47.692;9.400;2023-04-01T02:01:22;95593.59;;;5.85;100.00
28927;BME280;16038;47.692;9.400;2023-04-01T02:03:49;95590.13;;;5.84;100.00
28927;BME280;16038;47.692;9.400;2023-04-01T02:06:16;95598.13;;;5.97;100.00
28927;BME280;16038;47.692;9.400;2023-04-01T02:08:44;95589.88;;;5.93;100.00
28927;BME280;16038;47.692;9.400;2023-04-01T02:11:12;95598.38;;;5.91;100.00
28927;BME280;16038;47.692;9.400;2023-04-01T02:13:40;95593.25;;;5.86;100.00
28927;BME280;16038;47.692;9.400;2023-04-01T02:18:59;95591.97;;;6.00;100.00
28927;BME280;16038;47.692;9.400;2023-04-01T02:21:27;95595.56;;;6.07;100.00
28927;BME280;16038;47.692;9.400;2023-04-01T02:23:55;95595.94;;;6.06;100.00
28927;BME280;16038;47.692;9.400;2023-04-01T02:26:21;95591.13;;;6.22;100.00
28927;BME280;16038;47.692;9.400;2023-04-01T02:28:48;95601.19;;;6.18;100.00
28927;BME280;16038;47.692;9.400;2023-04-01T02:31:14;95584.56;;;6.23;100.00
28927;BME280;16038;47.692;9.400;2023-04-01T02:33:40;95603.34;;;6.32;100.00
28927;BME280;16038;47.692;9.400;2023-04-01T02:36:07;95598.31;;;6.34;100.00
28927;BME280;16038;47.692;9.400;2023-04-01T02:38:35;95593.25;;;6.32;100.00
28927;BME280;16038;47.692;9.400;2023-04-01T02:41:00;95599.88;;;6.35;100.00
28927;BME280;16038;47.692;9.400;2023-04-01T02:43:28;95596.78;;;6.37;100.00
28927;BME280;16038;47.692;9.400;2023-04-01T02:45:53;95592.94;;;6.38;100.00
28927;BME280;16038;47.692;9.400;2023-04-01T02:48:19;95597.63;;;6.41;100.00
28927;BME280;16038;47.692;9.400;2023-04-01T02:50:44;95594.16;;;6.44;100.00
28927;BME280;16038;47.692;9.400;2023-04-01T02:53:09;95598.47;;;6.45;100.00
28927;BME280;16038;47.692;9.400;2023-04-01T02:55:35;95595.44;;;6.50;100.00
28927;BME280;16038;47.692;9.400;2023-04-01T02:58:00;95592.78;;;6.54;100.00
28927;BME280;16038;47.692;9.400;2023-04-01T03:00:26;95593.44;;;6.47;100.00
28927;BME280;16038;47.692;9.400;2023-04-01T03:02:51;95589.56;;;6.48;100.00
28927;BME280;16038;47.692;9.400;2023-04-01T03:05:17;95595.09;;;6.55;100.00
28927;BME280;16038;47.692;9.400;2023-04-01T03:07:42;95605.19;;;6.55;100.00
28927;BME280;16038;47.692;9.400;2023-04-01T03:10:08;95588.84;;;6.51;100.00
28927;BME280;16038;47.692;9.400;2023-04-01T03:12:33;95601.72;;;6.54;100.00
28927;BME280;16038;47.692;9.400;2023-04-01T03:14:58;95596.16;;;6.47;100.00
28927;BME280;16038;47.692;9.400;2023-04-01T03:17:24;95596.22;;;6.50;100.00
28927;BME280;16038;47.692;9.400;2023-04-01T03:19:49;95596.25;;;6.54;100.00
28927;BME280;16038;47.692;9.400;2023-04-01T03:22:14;95604.47;;;6.58;100.00
28927;BME280;16038;47.692;9.400;2023-04-01T03:24:40;95600.59;;;6.59;100.00
28927;BME280;16038;47.692;9.400;2023-04-01T03:27:05;95608.28;;;6.53;100.00
28927;BME280;16038;47.692;9.400;2023-04-01T03:29:30;95610.91;;;6.46;100.00
28927;BME280;16038;47.692;9.400;2023-04-01T03:31:56;95594.69;;;6.53;100.00
28927;BME280;16038;47.692;9.400;2023-04-01T03:34:23;95605.19;;;6.55;100.00
28927;BME280;16038;47.692;9.400;2023-04-01T03:36:48;95613.06;;;6.60;100.00
28927;BME280;16038;47.692;9.400;2023-04-01T03:39:14;95603.72;;;6.61;100.00
28927;BME280;16038;47.692;9.400;2023-04-01T03:41:39;95606.44;;;6.57;100.00
28927;BME280;16038;47.692;9.400;2023-04-01T03:44:04;95606.78;;;6.56;100.00
28927;BME280;16038;47.692;9.400;2023-04-01T03:46:30;95599.88;;;6.62;100.00
28927;BME280;16038;47.692;9.400;2023-04-01T03:48:55;95607.97;;;6.58;100.00
28927;BME280;16038;47.692;9.400;2023-04-01T03:51:20;95605.97;;;6.55;100.00
28927;BME280;16038;47.692;9.400;2023-04-01T03:53:45;95611.09;;;6.60;100.00
28927;BME280;16038;47.692;9.400;2023-04-01T03:56:11;95602.94;;;6.60;100.00
28927;BME280;16038;47.692;9.400;2023-04-01T03:58:36;95610.69;;;6.58;100.00
28927;BME280;16038;47.692;9.400;2023-04-01T04:01:02;95602.94;;;6.60;100.00
28927;BME280;16038;47.692;9.400;2023-04-01T04:03:27;95604.06;;;6.56;100.00
28927;BME280;16038;47.692;9.400;2023-04-01T04:05:53;95608.84;;;6.66;100.00
28927;BME280;16038;47.692;9.400;2023-04-01T04:08:18;95598.78;;;6.66;100.00
28927;BME280;16038;47.692;9.400;2023-04-01T04:10:46;95599.97;;;6.69;100.00
28927;BME280;16038;47.692;9.400;2023-04-01T04:13:11;95604.13;;;6.59;100.00
28927;BME280;16038;47.692;9.400;2023-04-01T04:15:38;95594.00;;;6.60;100.00
28927;BME280;16038;47.692;9.400;2023-04-01T04:18:03;95598.78;;;6.66;100.00
28927;BME280;16038;47.692;9.400;2023-04-01T04:20:29;95603.88;;;6.72;100.00
28927;BME280;16038;47.692;9.400;2023-04-01T04:22:55;95599.22;;;6.72;100.00
28927;BME280;16038;47.692;9.400;2023-04-01T04:25:21;95599.22;;;6.72;100.00
28927;BME280;16038;47.692;9.400;2023-04-01T04:27:47;95603.66;;;6.84;100.00
28927;BME280;16038;47.692;9.400;2023-04-01T04:30:13;95606.97;;;6.70;100.00
28927;BME280;16038;47.692;9.400;2023-04-01T04:32:38;95605.03;;;6.70;100.00
28927;BME280;16038;47.692;9.400;2023-04-01T04:35:05;95606.59;;;6.72;100.00
28927;BME280;16038;47.692;9.400;2023-04-01T04:37:31;95607.03;;;6.74;100.00
28927;BME280;16038;47.692;9.400;2023-04-01T04:39:57;95611.72;;;6.77;100.00
28927;BME280;16038;47.692;9.400;2023-04-01T04:42:23;95612.53;;;6.77;100.00
28927;BME280;16038;47.692;9.400;2023-04-01T04:44:48;95618.28;;;6.72;100.00
28927;BME280;16038;47.692;9.400;2023-04-01T04:47:13;95610.03;;;6.65;100.00
28927;BME280;16038;47.692;9.400;2023-04-01T04:49:38;95616.69;;;6.71;100.00
28927;BME280;16038;47.692;9.400;2023-04-01T04:52:04;95631.53;;;6.74;100.00
28927;BME280;16038;47.692;9.400;2023-04-01T04:54:29;95626.81;;;6.70;100.00
28927;BME280;16038;47.692;9.400;2023-04-01T04:56:55;95629.63;;;6.78;100.00
28927;BME280;16038;47.692;9.400;2023-04-01T04:59:20;95626.09;;;6.74;100.00
28927;BME280;16038;47.692;9.400;2023-04-01T05:01:45;95633.03;;;6.71;100.00
28927;BME280;16038;47.692;9.400;2023-04-01T05:04:11;95622.47;;;6.66;100.00
28927;BME280;16038;47.692;9.400;2023-04-01T05:06:36;95635.19;;;6.58;100.00
28927;BME280;16038;47.692;9.400;2023-04-01T05:09:01;95627.63;;;6.48;100.00
28927;BME280;16038;47.692;9.400;2023-04-01T05:11:27;95630.75;;;6.46;100.00
28927;BME280;16038;47.692;9.400;2023-04-01T05:13:54;95623.38;;;6.47;100.00
28927;BME280;16038;47.692;9.400;2023-04-01T05:16:20;95622.47;;;6.39;100.00
28927;BME280;16038;47.692;9.400;2023-04-01T05:18:45;95622.38;;;6.32;100.00
28927;BME280;16038;47.692;9.400;2023-04-01T05:21:12;95616.19;;;6.35;100.00
28927;BME280;16038;47.692;9.400;2023-04-01T05:23:38;95619.22;;;6.30;100.00
28927;BME280;16038;47.692;9.400;2023-04-01T05:26:04;95614.28;;;6.36;100.00
28927;BME280;16038;47.692;9.400;2023-04-01T05:28:29;95611.50;;;6.32;100.00
28927;BME280;16038;47.692;9.400;2023-04-01T05:30:55;95620.75;;;6.27;100.00
28927;BME280;16038;47.692;9.400;2023-04-01T05:33:22;95629.00;;;6.35;100.00
28927;BME280;16038;47.692;9.400;2023-04-01T05:35:48;95623.63;;;6.38;100.00
28927;BME280;16038;47.692;9.400;2023-04-01T05:38:13;95623.16;;;6.32;100.00
28927;BME280;16038;47.692;9.400;2023-04-01T05:40:38;95627.38;;;6.57;100.00
28927;BME280;16038;47.692;9.400;2023-04-01T05:43:03;95616.66;;;6.67;100.00
28927;BME280;16038;47.692;9.400;2023-04-01T05:45:29;95624.00;;;6.63;100.00
28927;BME280;16038;47.692;9.400;2023-04-01T05:47:55;95628.38;;;6.72;100.00
28927;BME280;16038;47.692;9.400;2023-04-01T05:50:20;95617.88;;;6.70;100.00
28927;BME280;16038;47.692;9.400;2023-04-01T05:52:45;95623.09;;;6.56;100.00
28927;BME280;16038;47.692;9.400;2023-04-01T05:55:11;95619.28;;;6.60;100.00
28927;BME280;16038;47.692;9.400;2023-04-01T05:57:36;95631.78;;;6.65;100.00
28927;BME280;16038;47.692;9.400;2023-04-01T06:00:02;95630.22;;;6.64;100.00
28927;BME280;16038;47.692;9.400;2023-04-01T06:02:28;95632.31;;;6.74;100.00
28927;BME280;16038;47.692;9.400;2023-04-01T06:04:54;95636.63;;;6.79;100.00
28927;BME280;16038;47.692;9.400;2023-04-01T06:07:26;95642.56;;;6.84;100.00
28927;BME280;16038;47.692;9.400;2023-04-01T06:09:52;95634.75;;;6.83;100.00
28927;BME280;16038;47.692;9.400;2023-04-01T06:15:01;95637.13;;;6.84;100.00
28927;BME280;16038;47.692;9.400;2023-04-01T06:20:22;95632.91;;;6.91;100.00
28927;BME280;16038;47.692;9.400;2023-04-01T06:25:39;95648.97;;;6.99;100.00
28927;BME280;16038;47.692;9.400;2023-04-01T06:28:20;95643.94;;;7.01;100.00
28927;BME280;16038;47.692;9.400;2023-04-01T06:33:40;95632.94;;;7.24;100.00
28927;BME280;16038;47.692;9.400;2023-04-01T06:43:51;95633.81;;;7.66;97.32
28927;BME280;16038;47.692;9.400;2023-04-01T06:46:34;95637.34;;;7.70;95.78
28927;BME280;16038;47.692;9.400;2023-04-01T06:54:12;95636.78;;;8.36;94.67
28927;BME280;16038;47.692;9.400;2023-04-01T06:56:41;95626.25;;;8.38;92.73
28927;BME280;16038;47.692;9.400;2023-04-01T06:59:17;95625.00;;;8.28;92.59
28927;BME280;16038;47.692;9.400;2023-04-01T07:01:51;95625.09;;;8.98;89.79
28927;BME280;16038;47.692;9.400;2023-04-01T07:04:32;95624.88;;;9.35;85.51
28927;BME280;16038;47.692;9.400;2023-04-01T07:06:59;95620.22;;;9.43;84.13
28927;BME280;16038;47.692;9.400;2023-04-01T07:10:00;95627.94;;;9.19;85.47
28927;BME280;16038;47.692;9.400;2023-04-01T07:12:21;95610.09;;;9.44;83.61
28927;BME280;16038;47.692;9.400;2023-04-01T07:14:47;95610.81;;;9.30;86.65
28927;BME280;16038;47.692;9.400;2023-04-01T07:17:15;95609.84;;;10.49;79.23
28927;BME280;16038;47.692;9.400;2023-04-01T07:20:24;95605.91;;;10.29;78.30
28927;BME280;16038;47.692;9.400;2023-04-01T07:22:41;95604.13;;;11.36;71.37
28927;BME280;16038;47.692;9.400;2023-04-01T07:25:20;95592.63;;;10.67;75.75
28927;BME280;16038;47.692;9.400;2023-04-01T07:27:46;95599.63;;;10.93;74.64
28927;BME280;16038;47.692;9.400;2023-04-01T07:30:18;95603.44;;;11.14;72.77
28927;BME280;16038;47.692;9.400;2023-04-01T07:32:45;95612.38;;;11.32;71.76
28927;BME280;16038;47.692;9.400;2023-04-01T07:37:52;95607.06;;;10.28;75.20
28927;BME280;16038;47.692;9.400;2023-04-01T07:40:40;95612.53;;;10.10;76.38
28927;BME280;16038;47.692;9.400;2023-04-01T07:45:59;95616.81;;;9.82;77.67
28927;BME280;16038;47.692;9.400;2023-04-01T07:53:40;95632.00;;;9.54;81.13
28927;BME280;16038;47.692;9.400;2023-04-01T08:06:10;95624.94;;;9.53;83.06
28927;BME280;16038;47.692;9.400;2023-04-01T08:13:35;95602.72;;;9.69;80.63
28927;BME280;16038;47.692;9.400;2023-04-01T08:16:20;95615.69;;;9.90;79.46
28927;BME280;16038;47.692;9.400;2023-04-01T08:19:09;95610.63;;;10.28;78.10
28927;BME280;16038;47.692;9.400;2023-04-01T08:21:39;95616.06;;;10.89;75.28
28927;BME280;16038;47.692;9.400;2023-04-01T08:24:10;95611.41;;;10.58;74.14
28927;BME280;16038;47.692;9.400;2023-04-01T08:26:41;95624.31;;;10.28;76.13
28927;BME280;16038;47.692;9.400;2023-04-01T08:29:11;95622.34;;;10.18;78.21
28927;BME280;16038;47.692;9.400;2023-04-01T08:31:40;95618.00;;;9.95;79.19
28927;BME280;16038;47.692;9.400;2023-04-01T08:34:11;95626.94;;;9.60;80.98
28927;BME280;16038;47.692;9.400;2023-04-01T08:36:41;95625.28;;;9.37;81.31
28927;BME280;16038;47.692;9.400;2023-04-01T08:39:41;95628.78;;;9.34;82.77
28927;BME280;16038;47.692;9.400;2023-04-01T08:50:05;95638.53;;;9.28;83.47
28927;BME280;16038;47.692;9.400;2023-04-01T09:00:47;95640.09;;;9.29;83.55
28927;BME280;16038;47.692;9.400;2023-04-01T09:03:16;95625.19;;;9.12;84.51
28927;BME280;16038;47.692;9.400;2023-04-01T09:05:53;95634.53;;;9.04;86.05
28927;BME280;16038;47.692;9.400;2023-04-01T09:11:06;95638.81;;;9.05;86.36
28927;BME280;16038;47.692;9.400;2023-04-01T09:13:43;95653.97;;;8.95;86.74
28927;BME280;16038;47.692;9.400;2023-04-01T09:18:55;95635.19;;;8.83;88.57
28927;BME280;16038;47.692;9.400;2023-04-01T09:23:59;95649.84;;;8.64;88.70
28927;BME280;16038;47.692;9.400;2023-04-01T09:26:39;95658.44;;;8.59;89.07
28927;BME280;16038;47.692;9.400;2023-04-01T09:34:17;95657.88;;;8.42;91.59
28927;BME280;16038;47.692;9.400;2023-04-01T09:36:59;95671.03;;;8.33;93.87
28927;BME280;16038;47.692;9.400;2023-04-01T09:39:36;95648.44;;;8.33;91.93
28927;BME280;16038;47.692;9.400;2023-04-01T09:44:59;95655.88;;;8.36;92.93
28927;BME280;16038;47.692;9.400;2023-04-01T09:47:34;95650.66;;;8.20;92.19
28927;BME280;16038;47.692;9.400;2023-04-01T09:50:19;95658.94;;;8.31;93.27
28927;BME280;16038;47.692;9.400;2023-04-01T09:53:04;95658.25;;;8.41;92.05
28927;BME280;16038;47.692;9.400;2023-04-01T09:58:21;95671.59;;;8.50;92.42
28927;BME280;16038;47.692;9.400;2023-04-01T10:01:02;95661.50;;;8.54;91.56
28927;BME280;16038;47.692;9.400;2023-04-01T10:09:06;95657.28;;;8.64;91.25
28927;BME280;16038;47.692;9.400;2023-04-01T10:29:58;95650.59;;;9.16;89.35
28927;BME280;16038;47.692;9.400;2023-04-01T10:35:05;95652.03;;;8.99;88.53
28927;BME280;16038;47.692;9.400;2023-04-01T10:50:52;95643.91;;;9.10;86.16
28927;BME280;16038;47.692;9.400;2023-04-01T10:58:53;95656.84;;;9.24;86.04
28927;BME280;16038;47.692;9.400;2023-04-01T11:12:01;95645.09;;;9.09;88.64
28927;BME280;16038;47.692;9.400;2023-04-01T11:17:12;95657.19;;;9.12;88.69
28927;BME280;16038;47.692;9.400;2023-04-01T11:25:07;95655.69;;;9.29;87.68
28927;BME280;16038;47.692;9.400;2023-04-01T11:27:38;95643.63;;;9.33;86.94
28927;BME280;16038;47.692;9.400;2023-04-01T11:32:41;95645.25;;;9.56;85.04
28927;BME280;16038;47.692;9.400;2023-04-01T11:37:54;95648.06;;;9.85;83.10
28927;BME280;16038;47.692;9.400;2023-04-01T11:41:08;95639.81;;;9.63;83.96
28927;BME280;16038;47.692;9.400;2023-04-01T11:45:46;95647.31;;;10.02;83.62
28927;BME280;16038;47.692;9.400;2023-04-01T11:58:52;95647.72;;;10.08;78.39
28927;BME280;16038;47.692;9.400;2023-04-01T12:09:09;95644.63;;;10.24;77.56
28927;BME280;16038;47.692;9.400;2023-04-01T12:11:39;95630.56;;;10.43;75.54
28927;BME280;16038;47.692;9.400;2023-04-01T12:14:20;95640.75;;;10.71;74.97
28927;BME280;16038;47.692;9.400;2023-04-01T12:21:44;95645.03;;;10.73;75.28
28927;BME280;16038;47.692;9.400;2023-04-01T12:27:02;95648.50;;;10.98;75.46
28927;BME280;16038;47.692;9.400;2023-04-01T12:29:41;95643.84;;;10.92;76.13
28927;BME280;16038;47.692;9.400;2023-04-01T12:32:15;95652.44;;;10.83;74.72
28927;BME280;16038;47.692;9.400;2023-04-01T12:45:15;95676.28;;;10.18;76.26
28927;BME280;16038;47.692;9.400;2023-04-01T12:50:20;95664.94;;;10.08;77.87
28927;BME280;16038;47.692;9.400;2023-04-01T13:16:31;95640.63;;;9.74;83.94
28927;BME280;16038;47.692;9.400;2023-04-01T13:19:09;95676.19;;;9.78;83.86
28927;BME280;16038;47.692;9.400;2023-04-01T13:29:32;95675.06;;;10.04;84.63
28927;BME280;16038;47.692;9.400;2023-04-01T13:34:59;95676.25;;;10.00;84.97
28927;BME280;16038;47.692;9.400;2023-04-01T13:42:40;95678.59;;;9.90;86.24
28927;BME280;16038;47.692;9.400;2023-04-01T13:53:23;95682.78;;;9.63;88.53
28927;BME280;16038;47.692;9.400;2023-04-01T14:13:36;95675.84;;;9.94;86.14
28927;BME280;16038;47.692;9.400;2023-04-01T14:18:49;95683.59;;;9.74;86.81
28927;BME280;16038;47.692;9.400;2023-04-01T14:32:06;95671.13;;;9.80;92.99
28927;BME280;16038;47.692;9.400;2023-04-01T14:37:30;95662.53;;;9.82;94.01
28927;BME280;16038;47.692;9.400;2023-04-01T14:48:15;95662.16;;;9.83;95.55
28927;BME280;16038;47.692;9.400;2023-04-01T14:50:44;95662.91;;;9.73;95.51
28927;BME280;16038;47.692;9.400;2023-04-01T14:53:26;95669.16;;;9.81;96.61
28927;BME280;16038;47.692;9.400;2023-04-01T14:58:18;95659.47;;;10.05;92.98
28927;BME280;16038;47.692;9.400;2023-04-01T15:06:30;95676.63;;;9.94;92.56
28927;BME280;16038;47.692;9.400;2023-04-01T15:09:12;95694.56;;;9.81;95.75
28927;BME280;16038;47.692;9.400;2023-04-01T15:12:03;95687.44;;;9.59;100.00
28927;BME280;16038;47.692;9.400;2023-04-01T15:27:51;95672.09;;;9.29;96.09
28927;BME280;16038;47.692;9.400;2023-04-01T15:33:06;95682.25;;;9.32;94.08
28927;BME280;16038;47.692;9.400;2023-04-01T15:51:07;95697.81;;;8.61;89.95
28927;BME280;16038;47.692;9.400;2023-04-01T15:58:52;95692.38;;;8.65;89.65
28927;BME280;16038;47.692;9.400;2023-04-01T16:01:38;95681.78;;;8.56;88.77
28927;BME280;16038;47.692;9.400;2023-04-01T16:09:42;95684.28;;;8.76;87.86
28927;BME280;16038;47.692;9.400;2023-04-01T16:12:16;95679.88;;;8.64;89.63
28927;BME280;16038;47.692;9.400;2023-04-01T16:22:16;95677.59;;;8.66;92.84
28927;BME280;16038;47.692;9.400;2023-04-01T16:24:53;95675.22;;;8.61;92.45
28927;BME280;16038;47.692;9.400;2023-04-01T16:30:32;95690.88;;;8.75;92.67
28927;BME280;16038;47.692;9.400;2023-04-01T16:33:01;95704.09;;;8.69;94.07
28927;BME280;16038;47.692;9.400;2023-04-01T16:35:36;95703.34;;;8.69;94.15
28927;BME280;16038;47.692;9.400;2023-04-01T16:40:44;95711.88;;;8.64;93.94
28927;BME280;16038;47.692;9.400;2023-04-01T16:43:15;95709.81;;;8.53;93.69
28927;BME280;16038;47.692;9.400;2023-04-01T16:51:09;95711.16;;;8.70;93.06
28927;BME280;16038;47.692;9.400;2023-04-01T16:53:46;95701.38;;;8.69;92.56
28927;BME280;16038;47.692;9.400;2023-04-01T16:59:02;95710.69;;;8.61;91.97
28927;BME280;16038;47.692;9.400;2023-04-01T17:04:23;95716.06;;;8.50;92.17
28927;BME280;16038;47.692;9.400;2023-04-01T17:07:05;95711.72;;;8.46;92.23
28927;BME280;16038;47.692;9.400;2023-04-01T17:14:39;95715.72;;;8.55;92.71
28927;BME280;16038;47.692;9.400;2023-04-01T17:17:14;95716.00;;;8.43;92.72
28927;BME280;16038;47.692;9.400;2023-04-01T17:32:37;95734.50;;;8.23;96.77
28927;BME280;16038;47.692;9.400;2023-04-01T17:35:27;95737.56;;;8.18;97.77
28927;BME280;16038;47.692;9.400;2023-04-01T17:43:26;95752.59;;;8.04;99.73
28927;BME280;16038;47.692;9.400;2023-04-01T17:45:56;95751.44;;;8.06;100.00
28927;BME280;16038;47.692;9.400;2023-04-01T17:53:34;95758.19;;;8.19;99.12
28927;BME280;16038;47.692;9.400;2023-04-01T17:56:06;95760.19;;;8.22;98.15
28927;BME280;16038;47.692;9.400;2023-04-01T18:22:54;95757.63;;;8.02;99.44
28927;BME280;16038;47.692;9.400;2023-04-01T18:24:56;95766.81;;;7.87;100.00
28927;BME280;16038;47.692;9.400;2023-04-01T18:27:43;95766.25;;;7.71;100.00
28927;BME280;16038;47.692;9.400;2023-04-01T18:30:20;95761.13;;;7.65;100.00
28927;BME280;16038;47.692;9.400;2023-04-01T18:32:51;95773.53;;;7.63;100.00
28927;BME280;16038;47.692;9.400;2023-04-01T18:35:27;95771.13;;;7.58;100.00
28927;BME280;16038;47.692;9.400;2023-04-01T18:43:05;95773.88;;;7.61;100.00
28927;BME280;16038;47.692;9.400;2023-04-01T18:45:41;95775.88;;;7.64;100.00
28927;BME280;16038;47.692;9.400;2023-04-01T18:50:58;95789.00;;;7.55;100.00
28927;BME280;16038;47.692;9.400;2023-04-01T18:53:29;95786.28;;;7.55;100.00
28927;BME280;16038;47.692;9.400;2023-04-01T18:55:57;95785.97;;;7.60;100.00
28927;BME280;16038;47.692;9.400;2023-04-01T19:01:01;95784.19;;;7.45;100.00
28927;BME280;16038;47.692;9.400;2023-04-01T19:03:40;95791.63;;;7.48;100.00
28927;BME280;16038;47.692;9.400;2023-04-01T19:06:13;95798.47;;;7.35;100.00
28927;BME280;16038;47.692;9.400;2023-04-01T19:08:40;95793.44;;;7.37;100.00
28927;BME280;16038;47.692;9.400;2023-04-01T19:11:10;95798.41;;;7.31;100.00
28927;BME280;16038;47.692;9.400;2023-04-01T19:19:46;95815.75;;;7.19;100.00
28927;BME280;16038;47.692;9.400;2023-04-01T19:22:21;95812.34;;;7.26;100.00
28927;BME280;16038;47.692;9.400;2023-04-01T19:25:12;95822.81;;;7.24;100.00
28927;BME280;16038;47.692;9.400;2023-04-01T19:27:50;95815.13;;;7.30;100.00
28927;BME280;16038;47.692;9.400;2023-04-01T19:35:25;95819.72;;;7.25;100.00
28927;BME280;16038;47.692;9.400;2023-04-01T19:38:01;95828.47;;;7.38;100.00
28927;BME280;16038;47.692;9.400;2023-04-01T19:40:47;95821.72;;;7.28;100.00
28927;BME280;16038;47.692;9.400;2023-04-01T19:53:49;95822.44;;;6.99;100.00
28927;BME280;16038;47.692;9.400;2023-04-01T19:56:17;95823.22;;;6.99;100.00
28927;BME280;16038;47.692;9.400;2023-04-01T20:01:21;95815.22;;;6.87;100.00
28927;BME280;16038;47.692;9.400;2023-04-01T20:03:54;95823.09;;;6.92;100.00
28927;BME280;16038;47.692;9.400;2023-04-01T20:06:28;95828.25;;;6.74;100.00
28927;BME280;16038;47.692;9.400;2023-04-01T20:09:00;95820.25;;;6.62;100.00
28927;BME280;16038;47.692;9.400;2023-04-01T20:11:34;95836.50;;;6.58;100.00
28927;BME280;16038;47.692;9.400;2023-04-01T20:16:50;95838.72;;;6.29;100.00
28927;BME280;16038;47.692;9.400;2023-04-01T20:19:24;95841.63;;;6.21;100.00
28927;BME280;16038;47.692;9.400;2023-04-01T20:21:50;95841.50;;;6.33;100.00
28927;BME280;16038;47.692;9.400;2023-04-01T20:24:23;95839.63;;;6.37;100.00
28927;BME280;16038;47.692;9.400;2023-04-01T20:26:59;95845.06;;;6.37;100.00
28927;BME280;16038;47.692;9.400;2023-04-01T20:42:27;95845.56;;;6.43;100.00
28927;BME280;16038;47.692;9.400;2023-04-01T20:52:55;95850.91;;;6.82;100.00
28927;BME280;16038;47.692;9.400;2023-04-01T20:55:24;95868.41;;;6.81;100.00
28927;BME280;16038;47.692;9.400;2023-04-01T20:57:57;95869.97;;;6.82;100.00
28927;BME280;16038;47.692;9.400;2023-04-01T21:08:29;95888.34;;;6.65;100.00
28927;BME280;16038;47.692;9.400;2023-04-01T21:19:04;95903.75;;;6.58;100.00
28927;BME280;16038;47.692;9.400;2023-04-01T21:21:39;95898.66;;;6.56;100.00
28927;BME280;16038;47.692;9.400;2023-04-01T21:26:52;95899.00;;;6.74;100.00
28927;BME280;16038;47.692;9.400;2023-04-01T21:34:55;95905.28;;;6.78;100.00
28927;BME280;16038;47.692;9.400;2023-04-01T21:42:40;95905.16;;;6.71;100.00
28927;BME280;16038;47.692;9.400;2023-04-01T22:10:59;95923.66;;;5.87;100.00
28927;BME280;16038;47.692;9.400;2023-04-01T22:13:36;95927.28;;;5.75;100.00
28927;BME280;16038;47.692;9.400;2023-04-01T22:18:33;95922.50;;;5.53;100.00
28927;BME280;16038;47.692;9.400;2023-04-01T22:21:04;95930.41;;;5.42;100.00